sensor_id;sensor_type;location;lat;lon;timestamp;temperature;humidity
73572;DHT22;61854;48.510;-2.770;2023-03-31T00:00:31;12.60;93.60
73572;DHT22;61854;48.510;-2.770;2023-03-31T00:02:56;12.70;93.10
73572;DHT22;61854;48.510;-2.770;2023-03-31T00:05:23;12.70;93.10
73572;DHT22;61854;48.510;-2.770;2023-03-31T00:07:55;12.70;93.30
73572;DHT22;61854;48.510;-2.770;2023-03-31T00:10:26;12.70;93.30
73572;DHT22;61854;48.510;-2.770;2023-03-31T00:12:52;12.70;93.60
73572;DHT22;61854;48.510;-2.770;2023-03-31T00:15:18;12.70;93.70
73572;DHT22;61854;48.510;-2.770;2023-03-31T00:17:43;12.70;93.20
73572;DHT22;61854;48.510;-2.770;2023-03-31T00:20:11;12.80;93.10
73572;DHT22;61854;48.510;-2.770;2023-03-31T00:22:37;12.80;93.20
73572;DHT22;61854;48.510;-2.770;2023-03-31T00:25:03;12.80;92.70
73572;DHT22;61854;48.510;-2.770;2023-03-31T00:27:29;12.80;92.50
73572;DHT22;61854;48.510;-2.770;2023-03-31T00:29:55;12.80;91.90
73572;DHT22;61854;48.510;-2.770;2023-03-31T00:32:20;12.70;92.30
73572;DHT22;61854;48.510;-2.770;2023-03-31T00:34:46;12.70;92.70
73572;DHT22;61854;48.510;-2.770;2023-03-31T00:37:11;12.70;92.40
73572;DHT22;61854;48.510;-2.770;2023-03-31T00:39:39;12.60;92.60
73572;DHT22;61854;48.510;-2.770;2023-03-31T00:42:05;12.60;92.30
73572;DHT22;61854;48.510;-2.770;2023-03-31T00:44:34;12.60;92.40
73572;DHT22;61854;48.510;-2.770;2023-03-31T00:47:18;12.70;92.00
73572;DHT22;61854;48.510;-2.770;2023-03-31T00:49:48;12.70;91.90
73572;DHT22;61854;48.510;-2.770;2023-03-31T00:52:18;12.70;91.50
73572;DHT22;61854;48.510;-2.770;2023-03-31T00:54:50;12.70;91.10
73572;DHT22;61854;48.510;-2.770;2023-03-31T00:57:15;12.70;90.50
73572;DHT22;61854;48.510;-2.770;2023-03-31T01:00:00;12.80;90.70
73572;DHT22;61854;48.510;-2.770;2023-03-31T01:02:34;12.80;90.40
73572;DHT22;61854;48.510;-2.770;2023-03-31T01:05:05;12.90;89.30
73572;DHT22;61854;48.510;-2.770;2023-03-31T01:07:40;12.80;89.90
73572;DHT22;61854;48.510;-2.770;2023-03-31T01:10:06;12.80;89.30
73572;DHT22;61854;48.510;-2.770;2023-03-31T01:12:33;12.90;90.80
73572;DHT22;61854;48.510;-2.770;2023-03-31T01:15:02;12.70;92.40
73572;DHT22;61854;48.510;-2.770;2023-03-31T01:17:28;12.50;93.70
73572;DHT22;61854;48.510;-2.770;2023-03-31T01:20:02;12.40;94.20
73572;DHT22;61854;48.510;-2.770;2023-03-31T01:22:44;12.30;94.60
73572;DHT22;61854;48.510;-2.770;2023-03-31T01:46:29;12.20;91.50
73572;DHT22;61854;48.510;-2.770;2023-03-31T01:56:57;12.30;90.90
73572;DHT22;61854;48.510;-2.770;2023-03-31T01:59:26;12.30;90.60
73572;DHT22;61854;48.510;-2.770;2023-03-31T02:01:53;12.40;90.20
73572;DHT22;61854;48.510;-2.770;2023-03-31T02:04:39;12.40;90.70
73572;DHT22;61854;48.510;-2.770;2023-03-31T02:07:08;12.40;90.20
73572;DHT22;61854;48.510;-2.770;2023-03-31T02:09:35;12.40;90.10
73572;DHT22;61854;48.510;-2.770;2023-03-31T02:12:03;12.50;90.20
73572;DHT22;61854;48.510;-2.770;2023-03-31T02:14:30;12.40;91.40
73572;DHT22;61854;48.510;-2.770;2023-03-31T02:16:57;12.30;91.30
73572;DHT22;61854;48.510;-2.770;2023-03-31T02:19:25;12.20;91.20
73572;DHT22;61854;48.510;-2.770;2023-03-31T02:21:52;12.20;91.30
73572;DHT22;61854;48.510;-2.770;2023-03-31T02:24:20;12.20;91.10
73572;DHT22;61854;48.510;-2.770;2023-03-31T02:29:30;12.30;89.70
73572;DHT22;61854;48.510;-2.770;2023-03-31T02:32:41;12.40;88.50
73572;DHT22;61854;48.510;-2.770;2023-03-31T02:34:41;12.50;88.80
73572;DHT22;61854;48.510;-2.770;2023-03-31T02:37:07;12.40;92.00
73572;DHT22;61854;48.510;-2.770;2023-03-31T02:39:33;12.20;91.70
73572;DHT22;61854;48.510;-2.770;2023-03-31T02:42:00;12.10;91.30
73572;DHT22;61854;48.510;-2.770;2023-03-31T02:44:34;12.00;92.00
73572;DHT22;61854;48.510;-2.770;2023-03-31T02:47:01;11.90;92.10
73572;DHT22;61854;48.510;-2.770;2023-03-31T02:49:28;11.80;92.00
73572;DHT22;61854;48.510;-2.770;2023-03-31T03:02:43;11.70;90.90
73572;DHT22;61854;48.510;-2.770;2023-03-31T03:08:04;11.70;91.00
73572;DHT22;61854;48.510;-2.770;2023-03-31T03:15:35;11.80;91.20
73572;DHT22;61854;48.510;-2.770;2023-03-31T03:18:01;11.80;91.30
73572;DHT22;61854;48.510;-2.770;2023-03-31T03:20:28;11.90;91.30
73572;DHT22;61854;48.510;-2.770;2023-03-31T03:22:53;11.90;91.10
73572;DHT22;61854;48.510;-2.770;2023-03-31T03:25:19;12.00;91.00
73572;DHT22;61854;48.510;-2.770;2023-03-31T03:27:45;12.10;90.90
73572;DHT22;61854;48.510;-2.770;2023-03-31T03:30:11;12.10;90.80
73572;DHT22;61854;48.510;-2.770;2023-03-31T03:32:37;12.10;90.70
73572;DHT22;61854;48.510;-2.770;2023-03-31T03:35:04;12.20;91.50
73572;DHT22;61854;48.510;-2.770;2023-03-31T03:37:30;12.10;91.70
73572;DHT22;61854;48.510;-2.770;2023-03-31T03:39:56;12.10;91.60
73572;DHT22;61854;48.510;-2.770;2023-03-31T03:42:22;12.00;92.40
73572;DHT22;61854;48.510;-2.770;2023-03-31T03:44:48;12.00;93.10
73572;DHT22;61854;48.510;-2.770;2023-03-31T03:47:14;11.90;93.30
73572;DHT22;61854;48.510;-2.770;2023-03-31T03:49:40;11.90;93.20
73572;DHT22;61854;48.510;-2.770;2023-03-31T03:52:05;11.80;92.40
73572;DHT22;61854;48.510;-2.770;2023-03-31T03:54:31;11.90;92.10
73572;DHT22;61854;48.510;-2.770;2023-03-31T03:56:57;11.90;91.80
73572;DHT22;61854;48.510;-2.770;2023-03-31T03:59:23;12.00;91.80
73572;DHT22;61854;48.510;-2.770;2023-03-31T04:01:49;12.00;92.60
73572;DHT22;61854;48.510;-2.770;2023-03-31T04:04:14;11.90;93.70
73572;DHT22;61854;48.510;-2.770;2023-03-31T04:06:40;11.70;95.60
73572;DHT22;61854;48.510;-2.770;2023-03-31T04:09:06;11.50;96.80
73572;DHT22;61854;48.510;-2.770;2023-03-31T04:11:31;11.40;97.60
73572;DHT22;61854;48.510;-2.770;2023-03-31T04:13:57;11.40;97.80
73572;DHT22;61854;48.510;-2.770;2023-03-31T04:16:22;11.30;97.60
73572;DHT22;61854;48.510;-2.770;2023-03-31T04:18:53;11.30;98.10
73572;DHT22;61854;48.510;-2.770;2023-03-31T04:21:21;11.30;97.80
73572;DHT22;61854;48.510;-2.770;2023-03-31T04:23:47;11.30;97.60
73572;DHT22;61854;48.510;-2.770;2023-03-31T04:26:14;11.40;97.00
73572;DHT22;61854;48.510;-2.770;2023-03-31T04:28:40;11.40;97.60
73572;DHT22;61854;48.510;-2.770;2023-03-31T04:31:07;11.30;97.20
73572;DHT22;61854;48.510;-2.770;2023-03-31T04:33:33;11.30;97.30
73572;DHT22;61854;48.510;-2.770;2023-03-31T04:36:03;11.30;97.10
73572;DHT22;61854;48.510;-2.770;2023-03-31T04:38:31;11.30;97.40
73572;DHT22;61854;48.510;-2.770;2023-03-31T04:40:57;11.30;97.40
73572;DHT22;61854;48.510;-2.770;2023-03-31T04:43:23;11.30;97.00
73572;DHT22;61854;48.510;-2.770;2023-03-31T04:45:49;11.30;96.90
73572;DHT22;61854;48.510;-2.770;2023-03-31T04:48:15;11.20;96.90
73572;DHT22;61854;48.510;-2.770;2023-03-31T04:50:41;11.30;96.50
73572;DHT22;61854;48.510;-2.770;2023-03-31T04:53:06;11.30;96.40
73572;DHT22;61854;48.510;-2.770;2023-03-31T04:55:32;11.40;96.00
73572;DHT22;61854;48.510;-2.770;2023-03-31T04:57:57;11.40;96.00
73572;DHT22;61854;48.510;-2.770;2023-03-31T05:00:23;11.50;95.70
73572;DHT22;61854;48.510;-2.770;2023-03-31T05:02:49;11.50;95.00
73572;DHT22;61854;48.510;-2.770;2023-03-31T05:05:15;11.60;95.00
73572;DHT22;61854;48.510;-2.770;2023-03-31T05:07:41;11.60;95.00
73572;DHT22;61854;48.510;-2.770;2023-03-31T05:10:07;11.60;94.90
73572;DHT22;61854;48.510;-2.770;2023-03-31T05:12:33;11.60;94.90
73572;DHT22;61854;48.510;-2.770;2023-03-31T05:14:59;11.60;94.40
73572;DHT22;61854;48.510;-2.770;2023-03-31T05:17:25;11.50;94.40
73572;DHT22;61854;48.510;-2.770;2023-03-31T05:19:50;11.50;94.60
73572;DHT22;61854;48.510;-2.770;2023-03-31T05:22:16;11.50;94.50
73572;DHT22;61854;48.510;-2.770;2023-03-31T05:24:45;11.50;94.10
73572;DHT22;61854;48.510;-2.770;2023-03-31T05:27:11;11.60;93.40
73572;DHT22;61854;48.510;-2.770;2023-03-31T05:29:36;11.60;93.00
73572;DHT22;61854;48.510;-2.770;2023-03-31T05:32:02;11.60;93.00
73572;DHT22;61854;48.510;-2.770;2023-03-31T05:34:27;11.60;92.70
73572;DHT22;61854;48.510;-2.770;2023-03-31T05:36:53;11.60;92.60
73572;DHT22;61854;48.510;-2.770;2023-03-31T05:39:18;11.70;94.20
73572;DHT22;61854;48.510;-2.770;2023-03-31T05:41:44;11.60;94.60
73572;DHT22;61854;48.510;-2.770;2023-03-31T05:44:10;11.50;94.30
73572;DHT22;61854;48.510;-2.770;2023-03-31T05:46:38;11.40;94.10
73572;DHT22;61854;48.510;-2.770;2023-03-31T05:49:04;11.40;93.70
73572;DHT22;61854;48.510;-2.770;2023-03-31T05:51:30;11.40;93.20
73572;DHT22;61854;48.510;-2.770;2023-03-31T05:53:59;11.50;93.00
73572;DHT22;61854;48.510;-2.770;2023-03-31T05:56:25;11.50;92.60
73572;DHT22;61854;48.510;-2.770;2023-03-31T05:58:52;11.50;93.00
73572;DHT22;61854;48.510;-2.770;2023-03-31T06:01:17;11.40;93.20
73572;DHT22;61854;48.510;-2.770;2023-03-31T06:03:47;11.40;93.60
73572;DHT22;61854;48.510;-2.770;2023-03-31T06:06:13;11.40;94.40
73572;DHT22;61854;48.510;-2.770;2023-03-31T06:08:39;11.30;94.40
73572;DHT22;61854;48.510;-2.770;2023-03-31T06:11:05;11.30;94.20
73572;DHT22;61854;48.510;-2.770;2023-03-31T06:13:31;11.30;94.20
73572;DHT22;61854;48.510;-2.770;2023-03-31T06:16:00;11.30;94.00
73572;DHT22;61854;48.510;-2.770;2023-03-31T06:18:26;11.30;93.90
73572;DHT22;61854;48.510;-2.770;2023-03-31T06:20:53;11.40;94.10
73572;DHT22;61854;48.510;-2.770;2023-03-31T06:23:18;11.40;93.90
73572;DHT22;61854;48.510;-2.770;2023-03-31T06:25:44;11.40;93.30
73572;DHT22;61854;48.510;-2.770;2023-03-31T06:28:10;11.50;92.80
73572;DHT22;61854;48.510;-2.770;2023-03-31T06:30:35;11.50;92.40
73572;DHT22;61854;48.510;-2.770;2023-03-31T06:33:01;11.60;92.30
73572;DHT22;61854;48.510;-2.770;2023-03-31T06:37:52;11.60;92.70
73572;DHT22;61854;48.510;-2.770;2023-03-31T06:40:18;11.60;93.00
73572;DHT22;61854;48.510;-2.770;2023-03-31T06:42:43;11.70;93.30
73572;DHT22;61854;48.510;-2.770;2023-03-31T06:45:09;11.70;92.60
73572;DHT22;61854;48.510;-2.770;2023-03-31T06:47:35;11.60;92.80
73572;DHT22;61854;48.510;-2.770;2023-03-31T06:50:03;11.60;92.60
73572;DHT22;61854;48.510;-2.770;2023-03-31T06:52:29;11.70;92.80
73572;DHT22;61854;48.510;-2.770;2023-03-31T06:54:55;11.60;92.90
73572;DHT22;61854;48.510;-2.770;2023-03-31T06:57:21;11.60;92.70
73572;DHT22;61854;48.510;-2.770;2023-03-31T06:59:52;11.60;93.10
73572;DHT22;61854;48.510;-2.770;2023-03-31T07:02:18;11.60;93.70
73572;DHT22;61854;48.510;-2.770;2023-03-31T07:04:44;11.50;95.90
73572;DHT22;61854;48.510;-2.770;2023-03-31T07:07:10;11.30;96.80
73572;DHT22;61854;48.510;-2.770;2023-03-31T07:09:36;11.20;97.60
73572;DHT22;61854;48.510;-2.770;2023-03-31T07:12:02;11.20;98.10
73572;DHT22;61854;48.510;-2.770;2023-03-31T07:14:30;11.10;98.30
73572;DHT22;61854;48.510;-2.770;2023-03-31T07:16:56;11.10;98.30
73572;DHT22;61854;48.510;-2.770;2023-03-31T07:19:21;11.20;98.00
73572;DHT22;61854;48.510;-2.770;2023-03-31T07:21:47;11.20;97.70
73572;DHT22;61854;48.510;-2.770;2023-03-31T07:24:13;11.20;97.40
73572;DHT22;61854;48.510;-2.770;2023-03-31T07:26:38;11.30;97.30
73572;DHT22;61854;48.510;-2.770;2023-03-31T07:29:04;11.20;97.80
73572;DHT22;61854;48.510;-2.770;2023-03-31T07:31:30;11.20;98.20
73572;DHT22;61854;48.510;-2.770;2023-03-31T07:33:56;11.20;97.60
73572;DHT22;61854;48.510;-2.770;2023-03-31T07:36:24;11.30;97.60
73572;DHT22;61854;48.510;-2.770;2023-03-31T07:38:50;11.30;97.30
73572;DHT22;61854;48.510;-2.770;2023-03-31T07:41:17;11.30;96.80
73572;DHT22;61854;48.510;-2.770;2023-03-31T07:43:55;11.40;96.40
73572;DHT22;61854;48.510;-2.770;2023-03-31T07:46:27;11.40;95.90
73572;DHT22;61854;48.510;-2.770;2023-03-31T07:48:58;11.50;95.20
73572;DHT22;61854;48.510;-2.770;2023-03-31T07:51:30;11.50;94.70
73572;DHT22;61854;48.510;-2.770;2023-03-31T07:53:56;11.60;94.20
73572;DHT22;61854;48.510;-2.770;2023-03-31T07:56:25;11.60;93.90
73572;DHT22;61854;48.510;-2.770;2023-03-31T07:58:51;11.70;93.80
73572;DHT22;61854;48.510;-2.770;2023-03-31T08:04:08;11.80;92.80
73572;DHT22;61854;48.510;-2.770;2023-03-31T08:06:34;11.90;92.90
73572;DHT22;61854;48.510;-2.770;2023-03-31T08:08:59;12.00;92.80
73572;DHT22;61854;48.510;-2.770;2023-03-31T08:11:25;12.00;92.90
73572;DHT22;61854;48.510;-2.770;2023-03-31T08:13:51;12.00;93.00
73572;DHT22;61854;48.510;-2.770;2023-03-31T08:16:17;12.00;92.90
73572;DHT22;61854;48.510;-2.770;2023-03-31T08:18:42;12.00;92.90
73572;DHT22;61854;48.510;-2.770;2023-03-31T08:21:08;12.10;93.10
73572;DHT22;61854;48.510;-2.770;2023-03-31T08:23:36;12.00;94.40
73572;DHT22;61854;48.510;-2.770;2023-03-31T08:26:10;11.90;95.30
73572;DHT22;61854;48.510;-2.770;2023-03-31T08:31:37;11.70;96.00
73572;DHT22;61854;48.510;-2.770;2023-03-31T08:34:03;11.70;96.10
73572;DHT22;61854;48.510;-2.770;2023-03-31T08:39:23;11.60;96.90
73572;DHT22;61854;48.510;-2.770;2023-03-31T08:42:04;11.60;97.50
73572;DHT22;61854;48.510;-2.770;2023-03-31T08:44:38;11.60;97.10
73572;DHT22;61854;48.510;-2.770;2023-03-31T08:47:08;11.60;96.10
73572;DHT22;61854;48.510;-2.770;2023-03-31T08:49:40;11.60;96.10
73572;DHT22;61854;48.510;-2.770;2023-03-31T08:52:08;11.60;95.20
73572;DHT22;61854;48.510;-2.770;2023-03-31T08:54:45;11.70;94.60
73572;DHT22;61854;48.510;-2.770;2023-03-31T08:57:34;11.80;94.70
73572;DHT22;61854;48.510;-2.770;2023-03-31T09:00:20;11.80;93.70
73572;DHT22;61854;48.510;-2.770;2023-03-31T09:08:51;12.20;92.90
73572;DHT22;61854;48.510;-2.770;2023-03-31T09:12:19;12.40;91.70
73572;DHT22;61854;48.510;-2.770;2023-03-31T09:16:47;12.20;93.60
73572;DHT22;61854;48.510;-2.770;2023-03-31T09:19:17;12.10;94.40
73572;DHT22;61854;48.510;-2.770;2023-03-31T09:21:44;12.00;95.20
73572;DHT22;61854;48.510;-2.770;2023-03-31T09:26:44;11.90;95.30
73572;DHT22;61854;48.510;-2.770;2023-03-31T09:29:13;12.10;95.40
73572;DHT22;61854;48.510;-2.770;2023-03-31T09:31:41;12.20;93.80
73572;DHT22;61854;48.510;-2.770;2023-03-31T09:34:11;12.30;93.10
73572;DHT22;61854;48.510;-2.770;2023-03-31T09:36:37;12.40;92.80
73572;DHT22;61854;48.510;-2.770;2023-03-31T09:39:02;12.30;93.20
73572;DHT22;61854;48.510;-2.770;2023-03-31T09:41:29;12.30;93.90
73572;DHT22;61854;48.510;-2.770;2023-03-31T09:43:55;12.10;95.10
73572;DHT22;61854;48.510;-2.770;2023-03-31T09:46:30;12.00;96.00
73572;DHT22;61854;48.510;-2.770;2023-03-31T09:49:05;12.00;96.20
73572;DHT22;61854;48.510;-2.770;2023-03-31T09:51:33;11.90;96.10
73572;DHT22;61854;48.510;-2.770;2023-03-31T09:56:44;11.80;97.70
73572;DHT22;61854;48.510;-2.770;2023-03-31T09:59:15;11.90;97.70
73572;DHT22;61854;48.510;-2.770;2023-03-31T10:01:43;11.90;97.80
73572;DHT22;61854;48.510;-2.770;2023-03-31T10:04:13;11.80;98.00
73572;DHT22;61854;48.510;-2.770;2023-03-31T10:06:41;11.70;98.60
73572;DHT22;61854;48.510;-2.770;2023-03-31T10:09:08;11.60;99.20
73572;DHT22;61854;48.510;-2.770;2023-03-31T10:11:34;11.50;99.70
73572;DHT22;61854;48.510;-2.770;2023-03-31T10:14:06;11.50;99.70
73572;DHT22;61854;48.510;-2.770;2023-03-31T10:16:47;11.40;99.80
73572;DHT22;61854;48.510;-2.770;2023-03-31T10:19:21;11.40;99.90
73572;DHT22;61854;48.510;-2.770;2023-03-31T10:21:48;11.40;99.90
73572;DHT22;61854;48.510;-2.770;2023-03-31T10:24:19;11.50;99.90
73572;DHT22;61854;48.510;-2.770;2023-03-31T10:26:48;11.60;99.90
73572;DHT22;61854;48.510;-2.770;2023-03-31T10:29:19;11.60;99.90
73572;DHT22;61854;48.510;-2.770;2023-03-31T10:31:46;11.80;99.90
73572;DHT22;61854;48.510;-2.770;2023-03-31T10:37:08;12.10;97.90
73572;DHT22;61854;48.510;-2.770;2023-03-31T10:39:37;12.20;98.10
73572;DHT22;61854;48.510;-2.770;2023-03-31T10:48:31;12.50;95.60
73572;DHT22;61854;48.510;-2.770;2023-03-31T10:51:03;12.50;94.90
73572;DHT22;61854;48.510;-2.770;2023-03-31T10:53:30;12.60;94.70
73572;DHT22;61854;48.510;-2.770;2023-03-31T11:01:23;12.80;92.90
73572;DHT22;61854;48.510;-2.770;2023-03-31T11:04:07;12.90;93.00
73572;DHT22;61854;48.510;-2.770;2023-03-31T11:09:12;13.10;92.90
73572;DHT22;61854;48.510;-2.770;2023-03-31T11:24:09;12.00;97.70
73572;DHT22;61854;48.510;-2.770;2023-03-31T11:32:24;12.00;97.50
73572;DHT22;61854;48.510;-2.770;2023-03-31T11:37:01;12.30;95.60
73572;DHT22;61854;48.510;-2.770;2023-03-31T11:42:06;12.50;94.90
73572;DHT22;61854;48.510;-2.770;2023-03-31T11:44:55;12.70;95.00
73572;DHT22;61854;48.510;-2.770;2023-03-31T11:47:20;12.80;94.10
73572;DHT22;61854;48.510;-2.770;2023-03-31T11:49:48;12.70;95.60
73572;DHT22;61854;48.510;-2.770;2023-03-31T11:52:34;12.50;96.70
73572;DHT22;61854;48.510;-2.770;2023-03-31T11:55:14;12.30;98.10
73572;DHT22;61854;48.510;-2.770;2023-03-31T12:00:16;12.50;97.60
73572;DHT22;61854;48.510;-2.770;2023-03-31T12:05:27;12.70;97.70
73572;DHT22;61854;48.510;-2.770;2023-03-31T12:10:21;12.90;95.00
73572;DHT22;61854;48.510;-2.770;2023-03-31T12:15:40;12.90;96.30
73572;DHT22;61854;48.510;-2.770;2023-03-31T12:18:13;12.90;95.00
73572;DHT22;61854;48.510;-2.770;2023-03-31T12:20:45;13.00;94.20
73572;DHT22;61854;48.510;-2.770;2023-03-31T12:23:17;12.90;93.40
73572;DHT22;61854;48.510;-2.770;2023-03-31T12:25:54;12.90;93.90
73572;DHT22;61854;48.510;-2.770;2023-03-31T12:28:23;13.00;94.40
73572;DHT22;61854;48.510;-2.770;2023-03-31T12:30:49;13.10;93.80
73572;DHT22;61854;48.510;-2.770;2023-03-31T12:56:18;13.40;95.30
73572;DHT22;61854;48.510;-2.770;2023-03-31T12:58:44;13.40;96.20
73572;DHT22;61854;48.510;-2.770;2023-03-31T13:01:11;13.40;95.00
73572;DHT22;61854;48.510;-2.770;2023-03-31T13:03:46;13.40;94.70
73572;DHT22;61854;48.510;-2.770;2023-03-31T13:11:43;14.00;92.40
73572;DHT22;61854;48.510;-2.770;2023-03-31T13:16:40;14.00;91.50
73572;DHT22;61854;48.510;-2.770;2023-03-31T13:19:06;14.10;90.70
73572;DHT22;61854;48.510;-2.770;2023-03-31T13:21:39;14.10;90.50
73572;DHT22;61854;48.510;-2.770;2023-03-31T13:24:16;14.10;90.80
73572;DHT22;61854;48.510;-2.770;2023-03-31T13:26:45;14.50;87.90
73572;DHT22;61854;48.510;-2.770;2023-03-31T13:34:24;15.20;81.40
73572;DHT22;61854;48.510;-2.770;2023-03-31T13:45:04;14.30;87.50
73572;DHT22;61854;48.510;-2.770;2023-03-31T13:50:28;12.90;96.60
73572;DHT22;61854;48.510;-2.770;2023-03-31T14:03:15;12.30;98.10
73572;DHT22;61854;48.510;-2.770;2023-03-31T14:05:42;12.40;98.20
73572;DHT22;61854;48.510;-2.770;2023-03-31T14:08:18;12.40;98.00
73572;DHT22;61854;48.510;-2.770;2023-03-31T14:10:44;12.50;98.10
73572;DHT22;61854;48.510;-2.770;2023-03-31T14:13:17;13.00;97.30
73572;DHT22;61854;48.510;-2.770;2023-03-31T14:15:50;13.60;96.30
73572;DHT22;61854;48.510;-2.770;2023-03-31T14:18:29;13.90;92.50
73572;DHT22;61854;48.510;-2.770;2023-03-31T14:27:14;12.90;94.00
73572;DHT22;61854;48.510;-2.770;2023-03-31T14:29:28;12.40;95.50
73572;DHT22;61854;48.510;-2.770;2023-03-31T14:32:02;12.50;96.10
73572;DHT22;61854;48.510;-2.770;2023-03-31T14:34:48;13.10;97.10
73572;DHT22;61854;48.510;-2.770;2023-03-31T14:37:18;13.80;96.70
73572;DHT22;61854;48.510;-2.770;2023-03-31T14:39:46;14.40;93.50
73572;DHT22;61854;48.510;-2.770;2023-03-31T14:42:16;14.30;92.60
73572;DHT22;61854;48.510;-2.770;2023-03-31T14:44:42;14.10;92.30
73572;DHT22;61854;48.510;-2.770;2023-03-31T14:47:25;13.90;92.80
73572;DHT22;61854;48.510;-2.770;2023-03-31T14:52:37;13.30;93.20
73572;DHT22;61854;48.510;-2.770;2023-03-31T14:55:03;13.10;92.90
73572;DHT22;61854;48.510;-2.770;2023-03-31T14:57:32;12.90;93.30
73572;DHT22;61854;48.510;-2.770;2023-03-31T14:59:58;12.70;95.00
73572;DHT22;61854;48.510;-2.770;2023-03-31T15:02:33;12.20;98.60
73572;DHT22;61854;48.510;-2.770;2023-03-31T15:05:12;11.80;99.90
73572;DHT22;61854;48.510;-2.770;2023-03-31T15:07:43;12.00;99.90
73572;DHT22;61854;48.510;-2.770;2023-03-31T15:10:11;12.70;99.90
73572;DHT22;61854;48.510;-2.770;2023-03-31T15:12:38;13.40;99.90
73572;DHT22;61854;48.510;-2.770;2023-03-31T15:15:05;14.00;98.20
73572;DHT22;61854;48.510;-2.770;2023-03-31T15:17:35;14.10;94.80
73572;DHT22;61854;48.510;-2.770;2023-03-31T15:20:01;13.90;93.80
73572;DHT22;61854;48.510;-2.770;2023-03-31T15:22:44;13.60;93.30
73572;DHT22;61854;48.510;-2.770;2023-03-31T15:25:13;13.10;94.30
73572;DHT22;61854;48.510;-2.770;2023-03-31T15:27:48;12.80;94.60
73572;DHT22;61854;48.510;-2.770;2023-03-31T15:30:15;12.60;95.30
73572;DHT22;61854;48.510;-2.770;2023-03-31T15:32:41;12.20;96.20
73572;DHT22;61854;48.510;-2.770;2023-03-31T15:35:30;12.20;96.60
73572;DHT22;61854;48.510;-2.770;2023-03-31T15:37:55;12.70;97.30
73572;DHT22;61854;48.510;-2.770;2023-03-31T15:42:48;14.30;93.00
73572;DHT22;61854;48.510;-2.770;2023-03-31T15:47:49;15.50;88.00
73572;DHT22;61854;48.510;-2.770;2023-03-31T15:50:15;15.70;88.00
73572;DHT22;61854;48.510;-2.770;2023-03-31T15:52:48;15.50;84.20
73572;DHT22;61854;48.510;-2.770;2023-03-31T15:58:05;14.10;88.20
73572;DHT22;61854;48.510;-2.770;2023-03-31T16:00:39;13.20;92.70
73572;DHT22;61854;48.510;-2.770;2023-03-31T16:06:14;13.00;98.20
73572;DHT22;61854;48.510;-2.770;2023-03-31T16:08:41;14.00;95.80
73572;DHT22;61854;48.510;-2.770;2023-03-31T16:11:08;14.40;92.50
73572;DHT22;61854;48.510;-2.770;2023-03-31T16:13:37;14.00;91.30
73572;DHT22;61854;48.510;-2.770;2023-03-31T16:16:06;14.10;91.70
73572;DHT22;61854;48.510;-2.770;2023-03-31T16:18:33;13.70;90.80
73572;DHT22;61854;48.510;-2.770;2023-03-31T16:21:01;13.20;91.80
73572;DHT22;61854;48.510;-2.770;2023-03-31T16:23:28;13.00;92.70
73572;DHT22;61854;48.510;-2.770;2023-03-31T16:25:54;12.80;93.00
73572;DHT22;61854;48.510;-2.770;2023-03-31T16:28:25;12.80;93.50
73572;DHT22;61854;48.510;-2.770;2023-03-31T16:30:51;12.90;93.90
73572;DHT22;61854;48.510;-2.770;2023-03-31T16:33:18;13.20;93.40
73572;DHT22;61854;48.510;-2.770;2023-03-31T16:35:45;13.40;92.70
73572;DHT22;61854;48.510;-2.770;2023-03-31T16:38:13;13.80;93.10
73572;DHT22;61854;48.510;-2.770;2023-03-31T16:40:41;14.80;91.30
73572;DHT22;61854;48.510;-2.770;2023-03-31T16:43:09;15.40;87.30
73572;DHT22;61854;48.510;-2.770;2023-03-31T16:45:34;16.00;83.00
73572;DHT22;61854;48.510;-2.770;2023-03-31T16:48:01;16.50;81.00
73572;DHT22;61854;48.510;-2.770;2023-03-31T16:50:26;17.00;77.70
73572;DHT22;61854;48.510;-2.770;2023-03-31T16:52:52;17.20;72.60
73572;DHT22;61854;48.510;-2.770;2023-03-31T16:55:17;16.70;73.30
73572;DHT22;61854;48.510;-2.770;2023-03-31T16:57:43;16.30;75.50
73572;DHT22;61854;48.510;-2.770;2023-03-31T17:00:09;16.40;77.50
73572;DHT22;61854;48.510;-2.770;2023-03-31T17:02:34;16.80;74.20
73572;DHT22;61854;48.510;-2.770;2023-03-31T17:05:00;16.30;74.20
73572;DHT22;61854;48.510;-2.770;2023-03-31T17:07:26;15.40;76.70
73572;DHT22;61854;48.510;-2.770;2023-03-31T17:09:51;14.70;80.50
73572;DHT22;61854;48.510;-2.770;2023-03-31T17:12:17;14.10;83.30
73572;DHT22;61854;48.510;-2.770;2023-03-31T17:14:42;13.70;85.50
73572;DHT22;61854;48.510;-2.770;2023-03-31T17:17:08;13.40;87.30
73572;DHT22;61854;48.510;-2.770;2023-03-31T17:19:34;13.30;88.00
73572;DHT22;61854;48.510;-2.770;2023-03-31T17:22:00;13.20;88.10
73572;DHT22;61854;48.510;-2.770;2023-03-31T17:24:27;13.30;88.30
73572;DHT22;61854;48.510;-2.770;2023-03-31T17:26:53;13.30;88.50
73572;DHT22;61854;48.510;-2.770;2023-03-31T17:29:19;13.30;86.60
73572;DHT22;61854;48.510;-2.770;2023-03-31T17:31:44;13.20;87.50
73572;DHT22;61854;48.510;-2.770;2023-03-31T17:34:10;13.10;86.70
73572;DHT22;61854;48.510;-2.770;2023-03-31T17:36:35;13.00;88.20
73572;DHT22;61854;48.510;-2.770;2023-03-31T17:39:01;13.00;88.40
73572;DHT22;61854;48.510;-2.770;2023-03-31T17:41:29;13.00;89.70
73572;DHT22;61854;48.510;-2.770;2023-03-31T17:43:54;12.90;90.10
73572;DHT22;61854;48.510;-2.770;2023-03-31T17:46:20;12.90;90.50
73572;DHT22;61854;48.510;-2.770;2023-03-31T17:48:46;12.80;90.40
73572;DHT22;61854;48.510;-2.770;2023-03-31T17:51:15;12.70;90.10
73572;DHT22;61854;48.510;-2.770;2023-03-31T17:53:41;12.70;90.60
73572;DHT22;61854;48.510;-2.770;2023-03-31T17:56:07;12.70;90.30
73572;DHT22;61854;48.510;-2.770;2023-03-31T17:58:33;12.60;90.80
73572;DHT22;61854;48.510;-2.770;2023-03-31T18:00:59;12.50;91.50
73572;DHT22;61854;48.510;-2.770;2023-03-31T18:03:27;12.40;91.50
73572;DHT22;61854;48.510;-2.770;2023-03-31T18:05:53;12.30;91.50
73572;DHT22;61854;48.510;-2.770;2023-03-31T18:08:18;12.30;91.90
73572;DHT22;61854;48.510;-2.770;2023-03-31T18:10:44;12.30;91.90
73572;DHT22;61854;48.510;-2.770;2023-03-31T18:13:10;12.20;92.10
73572;DHT22;61854;48.510;-2.770;2023-03-31T18:15:35;12.20;92.10
73572;DHT22;61854;48.510;-2.770;2023-03-31T18:18:02;12.10;92.30
73572;DHT22;61854;48.510;-2.770;2023-03-31T18:20:28;12.10;92.30
73572;DHT22;61854;48.510;-2.770;2023-03-31T18:22:54;12.10;92.30
73572;DHT22;61854;48.510;-2.770;2023-03-31T18:25:19;12.10;92.10
73572;DHT22;61854;48.510;-2.770;2023-03-31T18:27:45;12.10;92.10
73572;DHT22;61854;48.510;-2.770;2023-03-31T18:30:11;12.00;92.30
73572;DHT22;61854;48.510;-2.770;2023-03-31T18:32:37;12.00;93.00
73572;DHT22;61854;48.510;-2.770;2023-03-31T18:35:04;11.90;92.50
73572;DHT22;61854;48.510;-2.770;2023-03-31T18:37:30;11.80;92.80
73572;DHT22;61854;48.510;-2.770;2023-03-31T18:39:56;11.90;92.80
73572;DHT22;61854;48.510;-2.770;2023-03-31T18:42:22;11.80;92.60
73572;DHT22;61854;48.510;-2.770;2023-03-31T18:44:49;11.80;92.50